createdAt,value
2019-02-06T00:01:17.164Z,3.00
2019-02-06T00:03:43.889Z,3.00
2019-02-06T00:06:10.648Z,3.00
2019-02-06T00:08:37.589Z,3.10
2019-02-06T00:11:04.550Z,3.00
2019-02-06T00:13:31.692Z,3.00
2019-02-06T00:15:58.378Z,3.10
2019-02-06T00:18:26.167Z,3.10
2019-02-06T00:20:53.026Z,3.10
2019-02-06T00:23:19.764Z,3.10
2019-02-06T00:25:46.424Z,3.00
2019-02-06T00:28:13.102Z,3.10
2019-02-06T00:30:41.519Z,2.90
2019-02-06T00:33:09.436Z,2.90
2019-02-06T00:35:37.771Z,2.90
2019-02-06T00:38:05.442Z,2.90
2019-02-06T00:40:32.379Z,2.80
2019-02-06T00:42:59.007Z,2.80
2019-02-06T00:45:25.902Z,2.80
2019-02-06T00:47:52.638Z,2.70
2019-02-06T00:50:19.501Z,2.50
2019-02-06T00:52:46.065Z,2.50
2019-02-06T00:55:13.708Z,2.50
2019-02-06T00:57:40.379Z,2.40
2019-02-06T01:00:15.509Z,2.60
2019-02-06T01:02:43.762Z,2.50
2019-02-06T01:05:13.864Z,2.50
2019-02-06T01:07:40.541Z,2.60
2019-02-06T01:10:10.847Z,2.40
2019-02-06T01:12:37.465Z,2.30
2019-02-06T01:15:05.087Z,2.30
2019-02-06T01:17:32.663Z,2.40
2019-02-06T01:19:59.265Z,2.30
2019-02-06T01:22:25.772Z,2.30
2019-02-06T01:24:52.528Z,2.30
2019-02-06T01:27:19.135Z,2.20
2019-02-06T01:29:45.717Z,2.20
2019-02-06T01:32:12.425Z,2.10
2019-02-06T01:34:39.047Z,2.10
2019-02-06T01:37:05.612Z,2.20
2019-02-06T01:39:32.221Z,2.10
2019-02-06T01:41:58.828Z,2.00
2019-02-06T01:44:25.756Z,2.00
2019-02-06T01:46:52.475Z,2.00
2019-02-06T01:49:19.079Z,1.90
2019-02-06T01:51:45.678Z,1.90
2019-02-06T01:54:12.298Z,1.80
2019-02-06T01:56:39.019Z,1.90
2019-02-06T01:59:05.572Z,2.00
2019-02-06T02:01:32.080Z,2.00
2019-02-06T02:03:58.674Z,1.80
2019-02-06T02:06:25.173Z,1.90
2019-02-06T02:08:53.735Z,2.00
2019-02-06T02:11:22.150Z,1.80
2019-02-06T02:13:48.677Z,1.70
2019-02-06T02:16:15.187Z,1.70
2019-02-06T02:18:41.820Z,1.60
2019-02-06T02:21:08.496Z,1.70
2019-02-06T02:23:35.475Z,1.70
2019-02-06T02:26:02.292Z,1.70
2019-02-06T02:28:29.102Z,1.70
2019-02-06T02:30:55.885Z,1.80
2019-02-06T02:33:22.587Z,1.80
2019-02-06T02:35:50.064Z,1.80
2019-02-06T02:38:16.686Z,1.70
2019-02-06T02:40:43.347Z,1.60
2019-02-06T02:43:10.270Z,1.60
2019-02-06T02:45:36.735Z,1.80
2019-02-06T02:48:03.543Z,1.80
2019-02-06T02:50:30.291Z,1.70
2019-02-06T02:52:56.963Z,1.80
2019-02-06T02:55:25.279Z,1.80
2019-02-06T02:57:51.956Z,1.60
2019-02-06T03:00:21.640Z,1.60
2019-02-06T03:02:50.641Z,1.80
2019-02-06T03:05:20.341Z,1.80
2019-02-06T03:07:46.903Z,1.80
2019-02-06T03:10:13.595Z,1.90
2019-02-06T03:12:40.289Z,1.90
2019-02-06T03:15:08.010Z,1.90
2019-02-06T03:17:34.966Z,1.80
2019-02-06T03:20:01.832Z,1.90
2019-02-06T03:22:28.360Z,1.90
2019-02-06T03:24:55.104Z,1.90
2019-02-06T03:27:21.671Z,1.90
2019-02-06T03:29:48.368Z,1.90
2019-02-06T03:32:14.949Z,1.80
2019-02-06T03:34:41.627Z,1.80
2019-02-06T03:37:08.489Z,2.00
2019-02-06T03:39:36.299Z,2.20
2019-02-06T03:42:03.409Z,2.10
2019-02-06T03:44:30.089Z,2.10
2019-02-06T03:46:56.681Z,2.00
2019-02-06T03:49:23.325Z,2.10
2019-02-06T03:51:50.015Z,2.10
2019-02-06T03:54:16.561Z,2.20
2019-02-06T03:56:44.662Z,2.20
2019-02-06T03:59:11.325Z,2.40
2019-02-06T04:01:38.135Z,2.30
2019-02-06T04:04:04.900Z,2.40
2019-02-06T04:06:31.598Z,2.40
2019-02-06T04:08:58.184Z,2.50
2019-02-06T04:11:24.894Z,2.40
2019-02-06T04:13:53.145Z,2.50
2019-02-06T04:16:20.054Z,2.50
2019-02-06T04:18:46.627Z,2.60
2019-02-06T04:21:13.256Z,2.50
2019-02-06T04:23:39.933Z,2.70
2019-02-06T04:26:06.532Z,2.60
2019-02-06T04:28:33.122Z,2.60
2019-02-06T04:30:59.730Z,2.60
2019-02-06T04:33:26.304Z,2.50
2019-02-06T04:35:53.320Z,2.40
2019-02-06T04:38:19.881Z,2.50
2019-02-06T04:40:46.612Z,2.30
2019-02-06T04:43:13.185Z,2.40
2019-02-06T04:45:39.775Z,2.60
2019-02-06T04:48:06.354Z,2.60
2019-02-06T04:50:33.069Z,2.50
2019-02-06T04:52:59.730Z,2.50
2019-02-06T04:55:27.325Z,2.60
2019-02-06T04:57:54.006Z,2.60
2019-02-06T05:00:23.885Z,2.70
2019-02-06T05:02:52.243Z,2.60
2019-02-06T05:05:19.005Z,2.60
2019-02-06T05:07:45.856Z,2.70
2019-02-06T05:10:13.253Z,2.80
2019-02-06T05:12:40.090Z,2.70
2019-02-06T05:15:08.586Z,2.60
2019-02-06T05:17:35.311Z,2.60
2019-02-06T05:20:05.669Z,2.50
2019-02-06T05:22:32.292Z,2.60
2019-02-06T05:24:59.048Z,2.60
2019-02-06T05:27:26.170Z,2.70
2019-02-06T05:29:54.437Z,2.80
2019-02-06T05:32:21.867Z,2.80
2019-02-06T05:34:48.407Z,2.70
2019-02-06T05:37:15.051Z,2.70
2019-02-06T05:39:42.032Z,2.60
2019-02-06T05:42:08.729Z,2.60
2019-02-06T05:44:35.701Z,2.50
2019-02-06T05:47:02.385Z,2.50
2019-02-06T05:49:28.952Z,2.60
2019-02-06T05:51:55.746Z,2.70
2019-02-06T05:54:22.412Z,2.70
2019-02-06T05:56:49.254Z,2.50
2019-02-06T05:59:15.910Z,2.50
2019-02-06T06:01:42.501Z,2.50
2019-02-06T06:04:09.168Z,2.50
2019-02-06T06:06:35.793Z,2.50
2019-02-06T06:09:05.926Z,2.40
2019-02-06T06:11:33.031Z,2.40
2019-02-06T06:13:59.581Z,2.40
2019-02-06T06:16:26.170Z,2.50
2019-02-06T06:18:52.740Z,2.50
2019-02-06T06:21:19.344Z,2.60
2019-02-06T06:23:45.897Z,2.50
2019-02-06T06:26:12.579Z,2.30
2019-02-06T06:28:39.181Z,2.30
2019-02-06T06:31:05.775Z,2.40
2019-02-06T06:33:32.801Z,2.30
2019-02-06T06:35:59.458Z,2.40
2019-02-06T06:38:26.172Z,2.30
2019-02-06T06:40:52.784Z,2.30
2019-02-06T06:43:19.355Z,2.40
2019-02-06T06:45:46.130Z,2.30
2019-02-06T06:48:13.227Z,2.40
2019-02-06T06:50:39.943Z,2.40
2019-02-06T06:53:06.841Z,2.50
2019-02-06T06:55:35.200Z,2.50
2019-02-06T06:58:02.825Z,2.50
2019-02-06T07:00:30.218Z,2.50
2019-02-06T07:02:57.314Z,2.40
2019-02-06T07:05:25.709Z,2.40
2019-02-06T07:07:52.916Z,2.40
2019-02-06T07:10:21.479Z,2.20
2019-02-06T07:12:50.144Z,2.40
2019-02-06T07:15:28.862Z,2.40
2019-02-06T07:17:55.581Z,2.40
2019-02-06T07:20:22.492Z,2.50
2019-02-06T07:22:49.128Z,2.50
2019-02-06T07:25:18.225Z,2.50
2019-02-06T07:27:44.930Z,2.50
2019-02-06T07:30:17.725Z,2.60
2019-02-06T07:32:44.385Z,2.60
2019-02-06T07:35:11.146Z,2.70
2019-02-06T07:37:39.452Z,2.70
2019-02-06T07:40:09.027Z,2.80
2019-02-06T07:42:36.853Z,2.80
2019-02-06T07:45:06.941Z,2.80
2019-02-06T07:47:33.649Z,2.70
2019-02-06T07:50:00.468Z,2.70
2019-02-06T07:52:27.539Z,2.70
2019-02-06T07:54:54.264Z,2.70
2019-02-06T07:57:20.919Z,2.80
2019-02-06T07:59:47.814Z,2.90
2019-02-06T08:02:14.364Z,2.80
2019-02-06T08:04:41.679Z,2.70
2019-02-06T08:07:08.330Z,2.80
2019-02-06T08:09:35.029Z,2.90
2019-02-06T08:12:03.405Z,2.90
2019-02-06T08:14:30.619Z,3.00
2019-02-06T08:16:57.380Z,2.80
2019-02-06T08:19:24.478Z,3.00
2019-02-06T08:21:51.155Z,3.00
2019-02-06T08:24:17.851Z,3.10
2019-02-06T08:26:44.598Z,3.10
2019-02-06T08:29:11.338Z,3.20
2019-02-06T08:31:38.128Z,3.20
2019-02-06T08:34:06.421Z,3.30
2019-02-06T08:36:33.684Z,3.30
2019-02-06T08:39:00.478Z,3.30
2019-02-06T08:41:27.651Z,3.30
2019-02-06T08:43:54.536Z,3.30
2019-02-06T08:46:21.315Z,3.40
2019-02-06T08:48:48.073Z,3.50
2019-02-06T08:51:14.802Z,3.50
2019-02-06T08:53:41.556Z,3.50
2019-02-06T08:56:09.504Z,3.60
2019-02-06T08:58:36.474Z,3.50
2019-02-06T09:01:03.518Z,3.60
2019-02-06T09:03:30.343Z,3.70
2019-02-06T09:05:56.913Z,3.70
2019-02-06T09:08:23.619Z,4.00
2019-02-06T09:10:50.479Z,3.90
2019-02-06T09:13:17.073Z,4.00
2019-02-06T09:15:44.451Z,4.00
2019-02-06T09:18:11.153Z,4.00
2019-02-06T09:20:37.810Z,4.00
2019-02-06T09:23:04.787Z,4.00
2019-02-06T09:25:32.098Z,4.10
2019-02-06T09:27:59.207Z,4.00
2019-02-06T09:30:28.300Z,4.10
2019-02-06T09:32:55.469Z,4.20
2019-02-06T09:35:22.719Z,4.40
2019-02-06T09:37:49.310Z,4.20
2019-02-06T09:40:18.323Z,4.30
2019-02-06T09:42:44.964Z,4.40
2019-02-06T09:45:13.326Z,4.40
2019-02-06T09:47:40.043Z,4.40
2019-02-06T09:50:13.059Z,4.40
2019-02-06T09:52:39.935Z,4.50
2019-02-06T09:55:06.957Z,4.80
2019-02-06T09:57:35.424Z,4.60
2019-02-06T10:00:04.253Z,4.60
2019-02-06T10:02:30.709Z,4.50
2019-02-06T10:04:57.314Z,4.60
2019-02-06T10:07:24.085Z,4.60
2019-02-06T10:09:50.692Z,4.80
2019-02-06T10:12:17.510Z,4.70
2019-02-06T10:14:44.069Z,4.70
2019-02-06T10:17:10.754Z,4.70
2019-02-06T10:19:37.355Z,4.90
2019-02-06T10:22:04.031Z,4.70
2019-02-06T10:24:30.630Z,4.70
2019-02-06T10:26:57.292Z,4.70
2019-02-06T10:29:23.896Z,4.70
2019-02-06T10:31:50.674Z,4.70
2019-02-06T10:34:17.266Z,4.70
2019-02-06T10:36:43.797Z,4.80
2019-02-06T10:39:10.415Z,4.90
2019-02-06T10:41:37.094Z,4.90
2019-02-06T10:44:04.072Z,5.10
2019-02-06T10:46:30.672Z,5.00
2019-02-06T10:48:57.246Z,4.90
2019-02-06T10:51:24.329Z,4.90
2019-02-06T10:53:51.049Z,5.10
2019-02-06T10:56:17.671Z,5.10
2019-02-06T10:58:44.324Z,5.20
2019-02-06T11:01:11.076Z,5.20
2019-02-06T11:03:37.623Z,5.30
2019-02-06T11:06:04.316Z,5.40
2019-02-06T11:08:30.774Z,5.30
2019-02-06T11:10:57.979Z,5.30
2019-02-06T11:13:24.751Z,5.30
2019-02-06T11:15:51.643Z,5.50
2019-02-06T11:18:18.128Z,5.40
2019-02-06T11:20:45.141Z,5.40
2019-02-06T11:23:12.017Z,5.50
2019-02-06T11:25:38.809Z,5.50
2019-02-06T11:28:06.309Z,5.50
2019-02-06T11:30:35.593Z,5.50
2019-02-06T11:33:02.767Z,5.70
2019-02-06T11:35:29.463Z,5.70
2019-02-06T11:37:56.144Z,5.60
2019-02-06T11:40:23.945Z,5.50
2019-02-06T11:42:51.120Z,5.70
2019-02-06T11:45:20.662Z,5.60
2019-02-06T11:47:47.603Z,5.60
2019-02-06T11:50:17.116Z,5.70
2019-02-06T11:52:44.120Z,5.70
2019-02-06T11:55:13.934Z,5.80
2019-02-06T11:57:40.613Z,5.90
2019-02-06T12:00:14.527Z,5.90
2019-02-06T12:02:41.505Z,5.90
2019-02-06T12:05:08.992Z,6.00
2019-02-06T12:07:35.686Z,6.20
2019-02-06T12:10:10.231Z,6.30
2019-02-06T12:12:38.806Z,6.30
2019-02-06T12:15:12.376Z,6.30
2019-02-06T12:17:40.256Z,6.40
2019-02-06T12:20:12.952Z,6.50
2019-02-06T12:22:39.795Z,6.40
2019-02-06T12:25:09.114Z,6.40
2019-02-06T12:27:35.825Z,6.40
2019-02-06T12:30:06.368Z,6.40
2019-02-06T12:32:33.043Z,6.40
2019-02-06T12:35:00.200Z,6.40
2019-02-06T12:37:27.097Z,6.40
2019-02-06T12:39:54.776Z,6.50
2019-02-06T12:42:22.556Z,6.60
2019-02-06T12:44:49.283Z,6.80
2019-02-06T12:47:17.147Z,6.70
2019-02-06T12:49:44.907Z,6.60
2019-02-06T12:52:12.676Z,6.60
2019-02-06T12:54:41.080Z,6.90
2019-02-06T12:57:08.690Z,6.90
2019-02-06T12:59:35.440Z,7.00
2019-02-06T13:02:04.024Z,7.00
2019-02-06T13:04:31.459Z,7.00
2019-02-06T13:07:00.096Z,6.90
2019-02-06T13:09:26.929Z,6.90
2019-02-06T13:11:53.820Z,6.90
2019-02-06T13:14:20.777Z,6.80
2019-02-06T13:16:47.401Z,6.80
2019-02-06T13:19:14.070Z,6.80
2019-02-06T13:21:40.672Z,6.80
2019-02-06T13:24:07.252Z,6.70
2019-02-06T13:26:33.836Z,6.80
2019-02-06T13:29:00.407Z,6.60
2019-02-06T13:31:26.942Z,6.80
2019-02-06T13:33:53.904Z,6.70
2019-02-06T13:36:20.560Z,6.70
2019-02-06T13:38:47.187Z,6.70
2019-02-06T13:41:14.629Z,6.80
2019-02-06T13:43:41.615Z,6.80
2019-02-06T13:46:08.340Z,6.70
2019-02-06T13:48:35.018Z,6.70
2019-02-06T13:51:01.648Z,6.70
2019-02-06T13:53:28.637Z,6.80
2019-02-06T13:55:55.480Z,6.70
2019-02-06T13:58:22.072Z,6.50
2019-02-06T14:00:48.619Z,6.30
2019-02-06T14:03:15.292Z,6.40
2019-02-06T14:05:42.277Z,6.30
2019-02-06T14:08:11.755Z,6.20
2019-02-06T14:10:38.386Z,6.10
2019-02-06T14:13:05.060Z,6.10
2019-02-06T14:15:34.752Z,6.10
2019-02-06T14:18:01.553Z,6.00
2019-02-06T14:20:28.791Z,5.90
2019-02-06T14:23:01.990Z,6.00
2019-02-06T14:25:35.346Z,6.00
2019-02-06T14:28:20.447Z,5.90
2019-02-06T14:30:57.018Z,5.80
2019-02-06T14:33:28.777Z,5.90
2019-02-06T14:35:59.378Z,5.90
2019-02-06T14:38:38.363Z,5.80
2019-02-06T14:41:32.896Z,5.80
2019-02-06T14:44:26.732Z,5.80
2019-02-06T14:47:00.230Z,5.70
2019-02-06T14:49:51.936Z,5.70
2019-02-06T14:52:25.172Z,5.70
2019-02-06T14:55:13.734Z,5.80
2019-02-06T14:57:49.726Z,5.80
2019-02-06T15:00:41.451Z,5.70
2019-02-06T15:03:47.381Z,5.70
2019-02-06T15:06:17.834Z,5.70
2019-02-06T15:09:05.013Z,5.60
2019-02-06T15:11:54.185Z,5.80
2019-02-06T15:14:42.462Z,5.80
2019-02-06T15:17:19.050Z,5.70
2019-02-06T15:20:06.464Z,5.70
2019-02-06T15:22:36.993Z,5.70
2019-02-06T15:25:31.479Z,5.50
2019-02-06T15:28:04.890Z,5.40
2019-02-06T15:30:49.936Z,5.50
2019-02-06T15:33:37.304Z,5.50
2019-02-06T15:36:25.804Z,5.50
2019-02-06T15:38:59.335Z,5.60
2019-02-06T15:41:32.886Z,5.70
2019-02-06T15:44:06.520Z,5.60
2019-02-06T15:46:46.023Z,5.50
2019-02-06T15:49:25.498Z,5.40
2019-02-06T15:52:04.749Z,5.40
2019-02-06T15:54:39.953Z,5.40
2019-02-06T15:57:25.504Z,5.40
2019-02-06T16:00:23.437Z,5.40
2019-02-06T16:02:56.678Z,5.40
2019-02-06T16:05:51.577Z,5.30
2019-02-06T16:08:28.019Z,5.50
2019-02-06T16:11:10.088Z,5.60
2019-02-06T16:13:49.814Z,5.60
2019-02-06T16:16:31.746Z,5.60
2019-02-06T16:19:08.142Z,5.50
2019-02-06T16:21:53.182Z,5.50
2019-02-06T16:24:19.762Z,5.40
2019-02-06T16:27:05.201Z,5.50
2019-02-06T16:29:44.665Z,5.50
2019-02-06T16:32:20.572Z,5.40
2019-02-06T16:34:59.903Z,5.40
2019-02-06T16:37:30.293Z,5.40
2019-02-06T16:40:12.650Z,5.40
2019-02-06T16:42:52.180Z,5.30
2019-02-06T16:45:23.425Z,5.40
2019-02-06T16:48:12.291Z,5.40
2019-02-06T16:50:54.245Z,5.50
2019-02-06T16:53:43.127Z,5.50
2019-02-06T16:56:31.386Z,5.50
2019-02-06T16:59:07.343Z,5.40
2019-02-06T17:01:46.883Z,5.40
2019-02-06T17:04:22.988Z,5.40
2019-02-06T17:07:08.687Z,5.50
2019-02-06T17:09:55.057Z,5.50
2019-02-06T17:12:34.670Z,5.40
2019-02-06T17:15:21.726Z,5.40
2019-02-06T17:18:21.342Z,5.40
2019-02-06T17:21:11.263Z,5.50
2019-02-06T17:23:51.013Z,5.50
2019-02-06T17:26:24.639Z,5.60
2019-02-06T17:29:03.599Z,5.60
2019-02-06T17:31:43.480Z,5.70
2019-02-06T17:34:19.389Z,5.60
2019-02-06T17:36:55.232Z,5.60
2019-02-06T17:39:31.575Z,5.50
2019-02-06T17:42:15.882Z,5.50
2019-02-06T17:44:47.501Z,5.50
2019-02-06T17:47:35.040Z,5.50
2019-02-06T17:50:14.161Z,5.50
2019-02-06T17:52:47.427Z,5.40
2019-02-06T17:55:22.123Z,5.40
2019-02-06T17:57:50.540Z,5.50
2019-02-06T18:00:20.925Z,5.50
2019-02-06T18:02:47.737Z,5.70
2019-02-06T18:05:14.466Z,5.70
2019-02-06T18:07:41.288Z,5.60
2019-02-06T18:10:17.189Z,5.50
2019-02-06T18:12:45.706Z,5.60
2019-02-06T18:15:12.674Z,5.60
2019-02-06T18:17:39.309Z,5.60
2019-02-06T18:20:15.631Z,5.60
2019-02-06T18:22:42.353Z,5.50
2019-02-06T18:25:12.521Z,5.40
2019-02-06T18:27:39.432Z,5.50
2019-02-06T18:30:12.988Z,5.50
2019-02-06T18:32:39.929Z,5.50
2019-02-06T18:35:07.725Z,5.40
2019-02-06T18:37:34.450Z,5.30
2019-02-06T18:40:01.335Z,5.40
2019-02-06T18:42:37.003Z,5.50
2019-02-06T18:44:56.547Z,5.60
2019-02-06T18:47:24.501Z,5.50
2019-02-06T18:49:51.225Z,5.50
2019-02-06T18:52:20.505Z,5.50
2019-02-06T18:54:46.933Z,5.60
2019-02-06T18:57:14.456Z,5.50
2019-02-06T18:59:41.390Z,5.50
2019-02-06T19:02:09.460Z,5.50
2019-02-06T19:04:36.132Z,5.40
2019-02-06T19:07:04.555Z,5.50
2019-02-06T19:09:31.378Z,5.40
2019-02-06T19:11:58.293Z,5.50
2019-02-06T19:14:25.052Z,5.50
2019-02-06T19:16:51.731Z,5.50
2019-02-06T19:19:25.519Z,5.50
2019-02-06T19:21:47.758Z,5.60
2019-02-06T19:24:14.273Z,5.50
2019-02-06T19:26:41.329Z,5.50
2019-02-06T19:29:08.049Z,5.60
2019-02-06T19:31:36.864Z,5.60
2019-02-06T19:34:04.320Z,5.60
2019-02-06T19:36:31.335Z,5.70
2019-02-06T19:38:58.334Z,5.50
2019-02-06T19:41:25.599Z,5.50
2019-02-06T19:43:52.920Z,5.50
2019-02-06T19:46:19.736Z,5.60
2019-02-06T19:48:46.338Z,5.50
2019-02-06T19:51:12.995Z,5.50
2019-02-06T19:53:39.930Z,5.50
2019-02-06T19:56:06.945Z,5.40
2019-02-06T19:58:33.599Z,5.40
2019-02-06T20:01:00.800Z,5.40
2019-02-06T20:03:28.353Z,5.40
2019-02-06T20:05:55.006Z,5.40
2019-02-06T20:08:21.843Z,5.50
2019-02-06T20:10:52.409Z,5.50
2019-02-06T20:13:19.659Z,5.40
2019-02-06T20:15:46.686Z,5.40
2019-02-06T20:18:13.853Z,5.40
2019-02-06T20:20:40.897Z,5.40
2019-02-06T20:23:07.808Z,5.40
2019-02-06T20:25:34.764Z,5.50
2019-02-06T20:28:01.526Z,5.60
2019-02-06T20:30:32.055Z,5.50
2019-02-06T20:32:58.993Z,5.50
2019-02-06T20:35:26.614Z,5.50
2019-02-06T20:37:53.955Z,5.50
2019-02-06T20:40:29.171Z,5.40
2019-02-06T20:42:56.209Z,5.40
2019-02-06T20:45:23.035Z,5.40
2019-02-06T20:47:49.658Z,5.40
2019-02-06T20:50:28.350Z,5.40
2019-02-06T20:52:55.692Z,5.40
2019-02-06T20:55:22.590Z,5.40
2019-02-06T20:57:50.254Z,5.30
2019-02-06T21:00:21.081Z,5.30
2019-02-06T21:02:49.672Z,5.50
2019-02-06T21:05:16.252Z,5.40
2019-02-06T21:07:42.978Z,5.30
2019-02-06T21:10:21.798Z,5.30
2019-02-06T21:12:48.363Z,5.30
2019-02-06T21:15:15.112Z,5.20
2019-02-06T21:17:42.604Z,5.20
2019-02-06T21:20:18.593Z,5.20
2019-02-06T21:22:46.361Z,5.30
2019-02-06T21:25:16.488Z,5.20
2019-02-06T21:27:43.159Z,5.20
2019-02-06T21:30:19.106Z,5.20
2019-02-06T21:32:45.816Z,5.20
2019-02-06T21:35:12.789Z,5.20
2019-02-06T21:37:39.557Z,5.20
2019-02-06T21:40:12.980Z,5.10
2019-02-06T21:42:39.595Z,5.10
2019-02-06T21:45:09.003Z,5.00
2019-02-06T21:47:36.165Z,5.00
2019-02-06T21:50:06.128Z,5.10
2019-02-06T21:52:32.994Z,5.00
2019-02-06T21:54:59.546Z,5.10
2019-02-06T21:57:26.443Z,5.10
2019-02-06T21:59:52.998Z,5.10
2019-02-06T22:02:19.559Z,5.10
2019-02-06T22:04:46.207Z,5.00
2019-02-06T22:07:12.756Z,5.00
2019-02-06T22:09:39.461Z,5.00
2019-02-06T22:12:06.144Z,5.10
2019-02-06T22:14:32.969Z,5.10
2019-02-06T22:17:00.594Z,5.00
2019-02-06T22:19:27.345Z,5.10
2019-02-06T22:21:54.065Z,5.00
2019-02-06T22:24:20.714Z,5.00
2019-02-06T22:26:47.277Z,4.90
2019-02-06T22:29:13.906Z,4.80
2019-02-06T22:31:40.647Z,4.90
2019-02-06T22:34:07.369Z,4.80
2019-02-06T22:36:34.748Z,4.90
2019-02-06T22:39:01.392Z,4.90
2019-02-06T22:41:27.846Z,4.90
2019-02-06T22:43:54.432Z,4.90
2019-02-06T22:46:21.010Z,4.90
2019-02-06T22:48:47.607Z,4.80
2019-02-06T22:51:16.410Z,4.80
2019-02-06T22:53:42.639Z,4.80
2019-02-06T22:56:09.414Z,4.90
2019-02-06T22:58:36.192Z,4.90
2019-02-06T23:01:25.667Z,4.90
2019-02-06T23:03:52.359Z,4.90
2019-02-06T23:06:19.566Z,5.00
2019-02-06T23:08:46.571Z,5.00
2019-02-06T23:11:14.855Z,5.00
2019-02-06T23:13:41.433Z,5.00
2019-02-06T23:16:08.184Z,4.90
2019-02-06T23:18:35.251Z,4.80
2019-02-06T23:21:02.519Z,4.70
2019-02-06T23:23:29.200Z,4.80
2019-02-06T23:25:56.343Z,4.80
2019-02-06T23:28:23.088Z,4.80
2019-02-06T23:30:49.800Z,4.90
2019-02-06T23:33:16.470Z,5.00
2019-02-06T23:35:43.629Z,5.10
2019-02-06T23:38:10.359Z,4.90
2019-02-06T23:40:36.982Z,4.90
2019-02-06T23:43:04.036Z,5.00
2019-02-06T23:45:30.600Z,4.90
2019-02-06T23:47:57.196Z,5.00
2019-02-06T23:50:23.864Z,5.00
2019-02-06T23:52:50.522Z,4.90
2019-02-06T23:55:17.009Z,5.00
2019-02-06T23:57:43.610Z,4.80
